Cherokee, North Carolina
Current Conditions -  °F | °C
As of 10:55 AM on Thursday 27 Nov 2014 (Local Time) from KGKT Reporting Station
Overcast Overcast  
Wind Chill: 32°   Ceiling: 2900
Heat Index: 37°   Visibility: 10mi
Dew Point: 30°   Wind: 7mph
Humidity: 75%   Direction: 310°NW
Pressure: 30.26"   Gusts: NA
Location:  35.47°N, 83.31°W
Report Text: KGKT 271555Z AUTO 31006KT 10SM FEW020 BKN029 OVC034 03/M01 A3026 RMK
Loading
Personal Weather Stations






























Interactive Weather Map New forecast layout! Learn more

10-Day Weather Forecast

Advertisements
Track Severe Weather on mobile